sensor_id;sensor_type;location;lat;lon;timestamp;P1;durP1;ratioP1;P2;durP2;ratioP2
69569;SDS011;56781;42.292;23.146;2023-04-03T00:00:38;11.48;;;4.80;;
69569;SDS011;56781;42.292;23.146;2023-04-03T00:03:06;9.27;;;4.32;;
69569;SDS011;56781;42.292;23.146;2023-04-03T00:05:33;8.93;;;4.47;;
69569;SDS011;56781;42.292;23.146;2023-04-03T00:08:01;8.90;;;3.60;;
69569;SDS011;56781;42.292;23.146;2023-04-03T00:10:34;9.43;;;4.15;;
69569;SDS011;56781;42.292;23.146;2023-04-03T00:13:05;13.25;;;4.40;;
69569;SDS011;56781;42.292;23.146;2023-04-03T00:15:33;12.48;;;3.90;;
69569;SDS011;56781;42.292;23.146;2023-04-03T00:18:02;9.70;;;3.95;;
69569;SDS011;56781;42.292;23.146;2023-04-03T00:20:29;9.33;;;4.03;;
69569;SDS011;56781;42.292;23.146;2023-04-03T00:22:56;8.75;;;3.63;;
69569;SDS011;56781;42.292;23.146;2023-04-03T00:25:23;10.25;;;3.97;;
69569;SDS011;56781;42.292;23.146;2023-04-03T00:27:51;10.65;;;4.53;;
69569;SDS011;56781;42.292;23.146;2023-04-03T00:30:19;9.23;;;4.05;;
69569;SDS011;56781;42.292;23.146;2023-04-03T00:32:49;8.33;;;3.73;;
69569;SDS011;56781;42.292;23.146;2023-04-03T00:35:19;9.32;;;3.97;;
69569;SDS011;56781;42.292;23.146;2023-04-03T00:37:47;9.13;;;3.70;;
69569;SDS011;56781;42.292;23.146;2023-04-03T00:40:17;8.90;;;3.60;;
69569;SDS011;56781;42.292;23.146;2023-04-03T00:42:45;8.15;;;3.60;;
69569;SDS011;56781;42.292;23.146;2023-04-03T00:47:45;8.00;;;3.97;;
69569;SDS011;56781;42.292;23.146;2023-04-03T00:50:12;8.52;;;4.22;;
69569;SDS011;56781;42.292;23.146;2023-04-03T00:52:39;8.43;;;4.07;;
69569;SDS011;56781;42.292;23.146;2023-04-03T00:55:07;10.73;;;5.07;;
69569;SDS011;56781;42.292;23.146;2023-04-03T00:57:35;17.30;;;7.70;;
69569;SDS011;56781;42.292;23.146;2023-04-03T01:00:08;16.15;;;6.60;;
69569;SDS011;56781;42.292;23.146;2023-04-03T01:02:39;25.98;;;11.32;;
69569;SDS011;56781;42.292;23.146;2023-04-03T01:05:07;17.30;;;6.05;;
69569;SDS011;56781;42.292;23.146;2023-04-03T01:07:35;6.95;;;3.67;;
69569;SDS011;56781;42.292;23.146;2023-04-03T01:10:05;8.03;;;3.50;;
69569;SDS011;56781;42.292;23.146;2023-04-03T01:12:36;8.48;;;3.58;;
69569;SDS011;56781;42.292;23.146;2023-04-03T01:15:06;10.68;;;4.25;;
69569;SDS011;56781;42.292;23.146;2023-04-03T01:17:43;5.95;;;2.88;;
69569;SDS011;56781;42.292;23.146;2023-04-03T01:22:41;6.07;;;2.70;;
69569;SDS011;56781;42.292;23.146;2023-04-03T01:25:12;10.20;;;3.10;;
69569;SDS011;56781;42.292;23.146;2023-04-03T01:27:39;7.95;;;3.15;;
69569;SDS011;56781;42.292;23.146;2023-04-03T01:30:07;8.10;;;3.35;;
69569;SDS011;56781;42.292;23.146;2023-04-03T01:32:35;8.52;;;3.30;;
69569;SDS011;56781;42.292;23.146;2023-04-03T01:35:02;7.93;;;3.60;;
69569;SDS011;56781;42.292;23.146;2023-04-03T01:37:29;6.85;;;3.33;;
69569;SDS011;56781;42.292;23.146;2023-04-03T01:39:56;5.40;;;2.50;;
69569;SDS011;56781;42.292;23.146;2023-04-03T01:42:24;5.05;;;2.80;;
69569;SDS011;56781;42.292;23.146;2023-04-03T01:44:51;7.95;;;3.35;;
69569;SDS011;56781;42.292;23.146;2023-04-03T01:47:18;24.03;;;13.93;;
69569;SDS011;56781;42.292;23.146;2023-04-03T01:49:46;11.20;;;5.90;;
69569;SDS011;56781;42.292;23.146;2023-04-03T01:52:13;6.53;;;3.75;;
69569;SDS011;56781;42.292;23.146;2023-04-03T01:54:40;5.88;;;2.70;;
69569;SDS011;56781;42.292;23.146;2023-04-03T01:57:07;7.43;;;4.13;;
69569;SDS011;56781;42.292;23.146;2023-04-03T01:59:34;6.83;;;3.07;;
69569;SDS011;56781;42.292;23.146;2023-04-03T02:02:01;11.38;;;8.93;;
69569;SDS011;56781;42.292;23.146;2023-04-03T02:04:28;7.00;;;4.63;;
69569;SDS011;56781;42.292;23.146;2023-04-03T02:06:56;12.63;;;9.93;;
69569;SDS011;56781;42.292;23.146;2023-04-03T02:09:23;13.88;;;9.55;;
69569;SDS011;56781;42.292;23.146;2023-04-03T02:11:50;8.67;;;4.97;;
69569;SDS011;56781;42.292;23.146;2023-04-03T02:14:17;6.07;;;2.70;;
69569;SDS011;56781;42.292;23.146;2023-04-03T02:16:44;5.32;;;2.42;;
69569;SDS011;56781;42.292;23.146;2023-04-03T02:19:11;5.90;;;2.53;;
69569;SDS011;56781;42.292;23.146;2023-04-03T02:21:38;9.10;;;3.47;;
69569;SDS011;56781;42.292;23.146;2023-04-03T02:24:06;6.83;;;3.60;;
69569;SDS011;56781;42.292;23.146;2023-04-03T02:26:33;5.15;;;2.65;;
69569;SDS011;56781;42.292;23.146;2023-04-03T02:29:00;7.20;;;2.60;;
69569;SDS011;56781;42.292;23.146;2023-04-03T02:31:27;5.60;;;2.42;;
69569;SDS011;56781;42.292;23.146;2023-04-03T02:33:55;5.75;;;2.40;;
69569;SDS011;56781;42.292;23.146;2023-04-03T02:36:22;5.90;;;2.43;;
69569;SDS011;56781;42.292;23.146;2023-04-03T02:38:49;7.05;;;2.30;;
69569;SDS011;56781;42.292;23.146;2023-04-03T02:41:16;4.57;;;2.00;;
69569;SDS011;56781;42.292;23.146;2023-04-03T02:43:43;4.47;;;2.10;;
69569;SDS011;56781;42.292;23.146;2023-04-03T02:46:10;5.53;;;2.00;;
69569;SDS011;56781;42.292;23.146;2023-04-03T02:48:37;4.40;;;1.87;;
69569;SDS011;56781;42.292;23.146;2023-04-03T02:51:04;4.65;;;2.10;;
69569;SDS011;56781;42.292;23.146;2023-04-03T02:53:32;4.88;;;2.17;;
69569;SDS011;56781;42.292;23.146;2023-04-03T02:55:59;4.72;;;1.88;;
69569;SDS011;56781;42.292;23.146;2023-04-03T02:58:26;7.22;;;3.40;;
69569;SDS011;56781;42.292;23.146;2023-04-03T03:00:53;9.73;;;3.40;;
69569;SDS011;56781;42.292;23.146;2023-04-03T03:03:20;7.00;;;3.20;;
69569;SDS011;56781;42.292;23.146;2023-04-03T03:05:48;4.95;;;2.13;;
69569;SDS011;56781;42.292;23.146;2023-04-03T03:08:15;4.88;;;1.98;;
69569;SDS011;56781;42.292;23.146;2023-04-03T03:10:42;4.93;;;2.00;;
69569;SDS011;56781;42.292;23.146;2023-04-03T03:13:10;7.27;;;2.13;;
69569;SDS011;56781;42.292;23.146;2023-04-03T03:15:38;5.00;;;2.10;;
69569;SDS011;56781;42.292;23.146;2023-04-03T03:18:05;7.30;;;2.63;;
69569;SDS011;56781;42.292;23.146;2023-04-03T03:20:32;4.82;;;1.90;;
69569;SDS011;56781;42.292;23.146;2023-04-03T03:22:59;4.70;;;1.63;;
69569;SDS011;56781;42.292;23.146;2023-04-03T03:25:26;4.60;;;1.90;;
69569;SDS011;56781;42.292;23.146;2023-04-03T03:27:54;4.45;;;1.98;;
69569;SDS011;56781;42.292;23.146;2023-04-03T03:30:21;4.93;;;1.90;;
69569;SDS011;56781;42.292;23.146;2023-04-03T03:32:48;4.75;;;2.58;;
69569;SDS011;56781;42.292;23.146;2023-04-03T03:35:16;11.27;;;5.55;;
69569;SDS011;56781;42.292;23.146;2023-04-03T03:37:43;9.77;;;5.23;;
69569;SDS011;56781;42.292;23.146;2023-04-03T03:40:10;8.80;;;3.55;;
69569;SDS011;56781;42.292;23.146;2023-04-03T03:42:39;6.78;;;2.72;;
69569;SDS011;56781;42.292;23.146;2023-04-03T03:45:06;6.40;;;2.40;;
69569;SDS011;56781;42.292;23.146;2023-04-03T03:47:34;4.82;;;2.10;;
69569;SDS011;56781;42.292;23.146;2023-04-03T03:50:02;5.73;;;2.10;;
69569;SDS011;56781;42.292;23.146;2023-04-03T03:52:29;5.97;;;1.83;;
69569;SDS011;56781;42.292;23.146;2023-04-03T03:54:57;3.92;;;1.85;;
69569;SDS011;56781;42.292;23.146;2023-04-03T03:57:24;6.10;;;1.90;;
69569;SDS011;56781;42.292;23.146;2023-04-03T03:59:53;3.60;;;1.50;;
69569;SDS011;56781;42.292;23.146;2023-04-03T04:02:20;3.87;;;1.50;;
69569;SDS011;56781;42.292;23.146;2023-04-03T04:04:48;4.25;;;2.03;;
69569;SDS011;56781;42.292;23.146;2023-04-03T04:07:15;6.13;;;2.80;;
69569;SDS011;56781;42.292;23.146;2023-04-03T04:09:43;8.95;;;3.20;;
69569;SDS011;56781;42.292;23.146;2023-04-03T04:12:10;8.25;;;3.05;;
69569;SDS011;56781;42.292;23.146;2023-04-03T04:14:37;7.27;;;2.60;;
69569;SDS011;56781;42.292;23.146;2023-04-03T04:17:04;9.85;;;3.97;;
69569;SDS011;56781;42.292;23.146;2023-04-03T04:19:31;5.43;;;2.50;;
69569;SDS011;56781;42.292;23.146;2023-04-03T04:21:59;12.85;;;4.43;;
69569;SDS011;56781;42.292;23.146;2023-04-03T04:24:26;70.00;;;16.13;;
69569;SDS011;56781;42.292;23.146;2023-04-03T04:26:53;73.80;;;21.17;;
69569;SDS011;56781;42.292;23.146;2023-04-03T04:29:21;30.67;;;11.40;;
69569;SDS011;56781;42.292;23.146;2023-04-03T04:31:48;25.73;;;10.52;;
69569;SDS011;56781;42.292;23.146;2023-04-03T04:34:15;9.70;;;3.50;;
69569;SDS011;56781;42.292;23.146;2023-04-03T04:36:42;8.93;;;3.97;;
69569;SDS011;56781;42.292;23.146;2023-04-03T04:39:10;8.57;;;2.80;;
69569;SDS011;56781;42.292;23.146;2023-04-03T04:41:37;6.47;;;2.63;;
69569;SDS011;56781;42.292;23.146;2023-04-03T04:44:04;8.73;;;4.05;;
69569;SDS011;56781;42.292;23.146;2023-04-03T04:46:31;12.18;;;7.55;;
69569;SDS011;56781;42.292;23.146;2023-04-03T04:48:58;13.57;;;8.05;;
69569;SDS011;56781;42.292;23.146;2023-04-03T04:51:25;13.53;;;9.47;;
69569;SDS011;56781;42.292;23.146;2023-04-03T04:54:01;10.23;;;6.20;;
69569;SDS011;56781;42.292;23.146;2023-04-03T04:56:28;23.40;;;14.20;;
69569;SDS011;56781;42.292;23.146;2023-04-03T04:58:56;20.17;;;8.35;;
69569;SDS011;56781;42.292;23.146;2023-04-03T05:01:23;10.00;;;5.85;;
69569;SDS011;56781;42.292;23.146;2023-04-03T05:03:50;5.73;;;3.07;;
69569;SDS011;56781;42.292;23.146;2023-04-03T05:06:17;8.00;;;2.70;;
69569;SDS011;56781;42.292;23.146;2023-04-03T05:08:45;13.75;;;6.70;;
69569;SDS011;56781;42.292;23.146;2023-04-03T05:11:12;16.15;;;6.97;;
69569;SDS011;56781;42.292;23.146;2023-04-03T05:13:39;8.75;;;3.83;;
69569;SDS011;56781;42.292;23.146;2023-04-03T05:16:06;8.53;;;4.27;;
69569;SDS011;56781;42.292;23.146;2023-04-03T05:18:33;16.48;;;5.00;;
69569;SDS011;56781;42.292;23.146;2023-04-03T05:21:00;12.32;;;5.80;;
69569;SDS011;56781;42.292;23.146;2023-04-03T05:23:27;11.10;;;5.47;;
69569;SDS011;56781;42.292;23.146;2023-04-03T05:25:55;11.77;;;5.53;;
69569;SDS011;56781;42.292;23.146;2023-04-03T05:28:22;15.37;;;6.03;;
69569;SDS011;56781;42.292;23.146;2023-04-03T05:30:53;14.05;;;6.60;;
69569;SDS011;56781;42.292;23.146;2023-04-03T05:33:21;12.95;;;6.47;;
69569;SDS011;56781;42.292;23.146;2023-04-03T05:35:49;11.60;;;6.03;;
69569;SDS011;56781;42.292;23.146;2023-04-03T05:38:16;12.13;;;5.43;;
69569;SDS011;56781;42.292;23.146;2023-04-03T05:40:43;11.00;;;4.63;;
69569;SDS011;56781;42.292;23.146;2023-04-03T05:43:10;11.68;;;5.72;;
69569;SDS011;56781;42.292;23.146;2023-04-03T05:45:38;13.20;;;6.05;;
69569;SDS011;56781;42.292;23.146;2023-04-03T05:48:05;10.07;;;5.18;;
69569;SDS011;56781;42.292;23.146;2023-04-03T05:50:32;10.60;;;4.50;;
69569;SDS011;56781;42.292;23.146;2023-04-03T05:52:59;25.87;;;11.90;;
69569;SDS011;56781;42.292;23.146;2023-04-03T05:55:28;22.38;;;11.48;;
69569;SDS011;56781;42.292;23.146;2023-04-03T05:57:56;20.75;;;10.80;;
69569;SDS011;56781;42.292;23.146;2023-04-03T06:00:23;26.70;;;11.13;;
69569;SDS011;56781;42.292;23.146;2023-04-03T06:02:50;11.95;;;5.82;;
69569;SDS011;56781;42.292;23.146;2023-04-03T06:05:17;14.57;;;6.90;;
69569;SDS011;56781;42.292;23.146;2023-04-03T06:07:44;75.43;;;23.80;;
69569;SDS011;56781;42.292;23.146;2023-04-03T06:10:12;255.20;;;65.13;;
69569;SDS011;56781;42.292;23.146;2023-04-03T06:12:39;100.82;;;27.58;;
69569;SDS011;56781;42.292;23.146;2023-04-03T06:15:06;18.13;;;7.03;;
69569;SDS011;56781;42.292;23.146;2023-04-03T06:17:36;40.67;;;12.40;;
69569;SDS011;56781;42.292;23.146;2023-04-03T06:20:04;97.40;;;27.38;;
69569;SDS011;56781;42.292;23.146;2023-04-03T06:22:31;247.38;;;53.67;;
69569;SDS011;56781;42.292;23.146;2023-04-03T06:24:59;45.10;;;12.38;;
69569;SDS011;56781;42.292;23.146;2023-04-03T06:27:26;13.82;;;5.93;;
69569;SDS011;56781;42.292;23.146;2023-04-03T06:29:54;12.23;;;5.30;;
69569;SDS011;56781;42.292;23.146;2023-04-03T06:32:21;30.63;;;10.35;;
69569;SDS011;56781;42.292;23.146;2023-04-03T06:34:48;18.02;;;6.53;;
69569;SDS011;56781;42.292;23.146;2023-04-03T06:37:19;12.93;;;6.32;;
69569;SDS011;56781;42.292;23.146;2023-04-03T06:39:48;28.13;;;10.95;;
69569;SDS011;56781;42.292;23.146;2023-04-03T06:42:15;9.63;;;5.17;;
69569;SDS011;56781;42.292;23.146;2023-04-03T06:44:43;11.60;;;4.30;;
69569;SDS011;56781;42.292;23.146;2023-04-03T06:47:11;7.32;;;3.90;;
69569;SDS011;56781;42.292;23.146;2023-04-03T06:49:40;10.15;;;6.72;;
69569;SDS011;56781;42.292;23.146;2023-04-03T06:52:07;10.65;;;6.75;;
69569;SDS011;56781;42.292;23.146;2023-04-03T06:54:35;13.47;;;6.00;;
69569;SDS011;56781;42.292;23.146;2023-04-03T06:57:02;12.60;;;5.40;;
69569;SDS011;56781;42.292;23.146;2023-04-03T06:59:29;15.00;;;7.50;;
69569;SDS011;56781;42.292;23.146;2023-04-03T07:01:57;12.27;;;6.05;;
69569;SDS011;56781;42.292;23.146;2023-04-03T07:04:26;20.73;;;9.80;;
69569;SDS011;56781;42.292;23.146;2023-04-03T07:06:53;12.57;;;6.77;;
69569;SDS011;56781;42.292;23.146;2023-04-03T07:09:20;11.57;;;5.20;;
69569;SDS011;56781;42.292;23.146;2023-04-03T07:11:47;11.65;;;4.30;;
69569;SDS011;56781;42.292;23.146;2023-04-03T07:14:15;10.43;;;5.65;;
69569;SDS011;56781;42.292;23.146;2023-04-03T07:16:42;13.13;;;6.70;;
69569;SDS011;56781;42.292;23.146;2023-04-03T07:19:09;9.43;;;5.10;;
69569;SDS011;56781;42.292;23.146;2023-04-03T07:21:36;9.63;;;5.20;;
69569;SDS011;56781;42.292;23.146;2023-04-03T07:24:03;13.95;;;7.10;;
69569;SDS011;56781;42.292;23.146;2023-04-03T07:26:31;9.55;;;4.55;;
69569;SDS011;56781;42.292;23.146;2023-04-03T07:28:58;7.38;;;3.30;;
69569;SDS011;56781;42.292;23.146;2023-04-03T07:31:26;16.60;;;7.30;;
69569;SDS011;56781;42.292;23.146;2023-04-03T07:33:53;15.20;;;5.15;;
69569;SDS011;56781;42.292;23.146;2023-04-03T07:36:21;16.50;;;4.80;;
69569;SDS011;56781;42.292;23.146;2023-04-03T07:38:49;5.05;;;1.98;;
69569;SDS011;56781;42.292;23.146;2023-04-03T07:41:17;4.05;;;1.60;;
69569;SDS011;56781;42.292;23.146;2023-04-03T07:43:46;4.03;;;1.67;;
69569;SDS011;56781;42.292;23.146;2023-04-03T07:46:13;5.05;;;1.48;;
69569;SDS011;56781;42.292;23.146;2023-04-03T07:48:40;3.47;;;1.45;;
69569;SDS011;56781;42.292;23.146;2023-04-03T07:51:07;3.35;;;1.10;;
69569;SDS011;56781;42.292;23.146;2023-04-03T07:53:37;5.72;;;1.63;;
69569;SDS011;56781;42.292;23.146;2023-04-03T07:56:04;4.60;;;1.47;;
69569;SDS011;56781;42.292;23.146;2023-04-03T07:58:31;11.85;;;1.75;;
69569;SDS011;56781;42.292;23.146;2023-04-03T08:00:59;3.25;;;1.48;;
69569;SDS011;56781;42.292;23.146;2023-04-03T08:03:26;5.13;;;1.60;;
69569;SDS011;56781;42.292;23.146;2023-04-03T08:05:54;3.50;;;1.60;;
69569;SDS011;56781;42.292;23.146;2023-04-03T08:08:22;4.93;;;1.97;;
69569;SDS011;56781;42.292;23.146;2023-04-03T08:10:53;4.13;;;1.90;;
69569;SDS011;56781;42.292;23.146;2023-04-03T08:13:20;4.70;;;1.60;;
69569;SDS011;56781;42.292;23.146;2023-04-03T08:15:49;4.00;;;1.90;;
69569;SDS011;56781;42.292;23.146;2023-04-03T08:18:16;5.25;;;1.73;;
69569;SDS011;56781;42.292;23.146;2023-04-03T08:20:43;3.03;;;1.20;;
69569;SDS011;56781;42.292;23.146;2023-04-03T08:23:11;3.22;;;1.40;;
69569;SDS011;56781;42.292;23.146;2023-04-03T08:25:41;3.47;;;1.40;;
69569;SDS011;56781;42.292;23.146;2023-04-03T08:28:10;17.90;;;5.38;;
69569;SDS011;56781;42.292;23.146;2023-04-03T08:30:38;3.67;;;1.40;;
69569;SDS011;56781;42.292;23.146;2023-04-03T08:33:07;5.03;;;1.30;;
69569;SDS011;56781;42.292;23.146;2023-04-03T08:35:41;23.10;;;5.68;;
69569;SDS011;56781;42.292;23.146;2023-04-03T08:38:09;5.18;;;1.80;;
69569;SDS011;56781;42.292;23.146;2023-04-03T08:40:37;8.32;;;2.33;;
69569;SDS011;56781;42.292;23.146;2023-04-03T08:45:49;6.67;;;1.93;;
69569;SDS011;56781;42.292;23.146;2023-04-03T08:48:19;9.32;;;2.30;;
69569;SDS011;56781;42.292;23.146;2023-04-03T08:50:55;17.42;;;3.63;;
69569;SDS011;56781;42.292;23.146;2023-04-03T08:53:29;19.00;;;4.35;;
69569;SDS011;56781;42.292;23.146;2023-04-03T08:56:02;9.13;;;2.42;;
69569;SDS011;56781;42.292;23.146;2023-04-03T08:58:42;8.50;;;2.67;;
69569;SDS011;56781;42.292;23.146;2023-04-03T09:01:39;7.43;;;2.28;;
69569;SDS011;56781;42.292;23.146;2023-04-03T09:04:11;6.45;;;2.40;;
69569;SDS011;56781;42.292;23.146;2023-04-03T09:06:44;12.23;;;4.15;;
69569;SDS011;56781;42.292;23.146;2023-04-03T09:12:06;12.40;;;3.97;;
69569;SDS011;56781;42.292;23.146;2023-04-03T09:15:02;6.18;;;2.30;;
69569;SDS011;56781;42.292;23.146;2023-04-03T09:17:59;10.95;;;3.00;;
69569;SDS011;56781;42.292;23.146;2023-04-03T09:20:45;8.18;;;2.42;;
69569;SDS011;56781;42.292;23.146;2023-04-03T09:23:27;12.73;;;3.35;;
69569;SDS011;56781;42.292;23.146;2023-04-03T09:26:01;8.60;;;2.80;;
69569;SDS011;56781;42.292;23.146;2023-04-03T09:28:34;12.48;;;3.75;;
69569;SDS011;56781;42.292;23.146;2023-04-03T09:31:20;8.68;;;2.95;;
69569;SDS011;56781;42.292;23.146;2023-04-03T09:33:49;11.05;;;3.20;;
69569;SDS011;56781;42.292;23.146;2023-04-03T09:39:17;4.80;;;1.80;;
69569;SDS011;56781;42.292;23.146;2023-04-03T09:41:57;6.47;;;3.00;;
69569;SDS011;56781;42.292;23.146;2023-04-03T09:44:34;5.32;;;2.25;;
69569;SDS011;56781;42.292;23.146;2023-04-03T09:47:24;4.72;;;2.00;;
69569;SDS011;56781;42.292;23.146;2023-04-03T09:49:52;3.92;;;1.70;;
69569;SDS011;56781;42.292;23.146;2023-04-03T09:52:41;6.73;;;2.57;;
69569;SDS011;56781;42.292;23.146;2023-04-03T09:55:19;8.90;;;3.67;;
69569;SDS011;56781;42.292;23.146;2023-04-03T09:57:59;7.05;;;3.45;;
69569;SDS011;56781;42.292;23.146;2023-04-03T10:00:30;5.38;;;2.58;;
69569;SDS011;56781;42.292;23.146;2023-04-03T10:03:02;4.32;;;2.33;;
69569;SDS011;56781;42.292;23.146;2023-04-03T10:05:32;7.90;;;3.80;;
69569;SDS011;56781;42.292;23.146;2023-04-03T10:08:07;9.10;;;3.78;;
69569;SDS011;56781;42.292;23.146;2023-04-03T10:10:47;8.00;;;3.90;;
69569;SDS011;56781;42.292;23.146;2023-04-03T10:13:32;8.98;;;3.90;;
69569;SDS011;56781;42.292;23.146;2023-04-03T10:16:17;8.27;;;3.60;;
69569;SDS011;56781;42.292;23.146;2023-04-03T10:19:01;7.20;;;3.30;;
69569;SDS011;56781;42.292;23.146;2023-04-03T10:22:08;9.18;;;2.88;;
69569;SDS011;56781;42.292;23.146;2023-04-03T10:24:51;6.28;;;2.78;;
69569;SDS011;56781;42.292;23.146;2023-04-03T10:27:33;4.32;;;1.73;;
69569;SDS011;56781;42.292;23.146;2023-04-03T10:35:44;6.70;;;3.20;;
69569;SDS011;56781;42.292;23.146;2023-04-03T10:38:36;4.93;;;2.65;;
69569;SDS011;56781;42.292;23.146;2023-04-03T10:41:30;6.00;;;3.10;;
69569;SDS011;56781;42.292;23.146;2023-04-03T10:44:16;3.75;;;1.90;;
69569;SDS011;56781;42.292;23.146;2023-04-03T10:47:01;3.57;;;1.90;;
69569;SDS011;56781;42.292;23.146;2023-04-03T10:49:41;4.13;;;1.80;;
69569;SDS011;56781;42.292;23.146;2023-04-03T10:52:39;3.72;;;1.60;;
69569;SDS011;56781;42.292;23.146;2023-04-03T10:57:54;4.20;;;1.42;;
69569;SDS011;56781;42.292;23.146;2023-04-03T11:00:42;4.20;;;1.50;;
69569;SDS011;56781;42.292;23.146;2023-04-03T11:03:27;3.75;;;1.60;;
69569;SDS011;56781;42.292;23.146;2023-04-03T11:06:00;4.22;;;1.90;;
69569;SDS011;56781;42.292;23.146;2023-04-03T11:11:31;4.43;;;1.90;;
69569;SDS011;56781;42.292;23.146;2023-04-03T11:14:09;4.23;;;1.70;;
69569;SDS011;56781;42.292;23.146;2023-04-03T11:16:59;2.55;;;1.30;;
69569;SDS011;56781;42.292;23.146;2023-04-03T11:19:34;3.45;;;1.33;;
69569;SDS011;56781;42.292;23.146;2023-04-03T11:22:10;4.22;;;1.80;;
69569;SDS011;56781;42.292;23.146;2023-04-03T11:25:02;3.35;;;1.70;;
69569;SDS011;56781;42.292;23.146;2023-04-03T11:36:44;3.63;;;1.65;;
69569;SDS011;56781;42.292;23.146;2023-04-03T11:41:42;3.70;;;1.80;;
69569;SDS011;56781;42.292;23.146;2023-04-03T11:44:28;4.97;;;2.40;;
69569;SDS011;56781;42.292;23.146;2023-04-03T11:46:59;5.38;;;3.13;;
69569;SDS011;56781;42.292;23.146;2023-04-03T12:08:47;5.40;;;1.80;;
69569;SDS011;56781;42.292;23.146;2023-04-03T12:11:24;2.80;;;1.40;;
69569;SDS011;56781;42.292;23.146;2023-04-03T12:16:29;3.30;;;1.73;;
69569;SDS011;56781;42.292;23.146;2023-04-03T12:29:46;3.15;;;1.55;;
69569;SDS011;56781;42.292;23.146;2023-04-03T12:32:24;3.45;;;1.60;;
69569;SDS011;56781;42.292;23.146;2023-04-03T12:46:51;4.10;;;2.03;;
69569;SDS011;56781;42.292;23.146;2023-04-03T12:51:46;4.30;;;1.90;;
69569;SDS011;56781;42.292;23.146;2023-04-03T12:54:27;4.82;;;2.30;;
69569;SDS011;56781;42.292;23.146;2023-04-03T12:57:20;5.25;;;2.78;;
69569;SDS011;56781;42.292;23.146;2023-04-03T12:59:54;6.90;;;3.90;;
69569;SDS011;56781;42.292;23.146;2023-04-03T13:02:29;4.37;;;2.43;;
69569;SDS011;56781;42.292;23.146;2023-04-03T13:04:58;5.70;;;2.88;;
69569;SDS011;56781;42.292;23.146;2023-04-03T13:07:33;7.45;;;3.40;;
69569;SDS011;56781;42.292;23.146;2023-04-03T13:12:35;21.65;;;8.98;;
69569;SDS011;56781;42.292;23.146;2023-04-03T13:15:14;9.20;;;3.47;;
69569;SDS011;56781;42.292;23.146;2023-04-03T13:17:46;6.88;;;2.70;;
69569;SDS011;56781;42.292;23.146;2023-04-03T13:20:21;6.22;;;2.72;;
69569;SDS011;56781;42.292;23.146;2023-04-03T13:22:56;8.15;;;3.65;;
69569;SDS011;56781;42.292;23.146;2023-04-03T13:25:24;10.32;;;3.17;;
69569;SDS011;56781;42.292;23.146;2023-04-03T13:27:54;7.13;;;3.17;;
69569;SDS011;56781;42.292;23.146;2023-04-03T13:30:38;4.07;;;2.00;;
69569;SDS011;56781;42.292;23.146;2023-04-03T13:33:28;4.07;;;1.73;;
69569;SDS011;56781;42.292;23.146;2023-04-03T13:36:00;5.00;;;2.45;;
69569;SDS011;56781;42.292;23.146;2023-04-03T13:38:43;8.55;;;3.72;;
69569;SDS011;56781;42.292;23.146;2023-04-03T13:41:24;7.73;;;2.10;;
69569;SDS011;56781;42.292;23.146;2023-04-03T13:43:55;4.65;;;2.00;;
69569;SDS011;56781;42.292;23.146;2023-04-03T13:46:37;4.82;;;2.10;;
69569;SDS011;56781;42.292;23.146;2023-04-03T13:49:17;4.60;;;1.50;;
69569;SDS011;56781;42.292;23.146;2023-04-03T13:51:47;4.60;;;1.92;;
69569;SDS011;56781;42.292;23.146;2023-04-03T13:54:34;5.17;;;2.30;;
69569;SDS011;56781;42.292;23.146;2023-04-03T13:57:10;5.50;;;2.25;;
69569;SDS011;56781;42.292;23.146;2023-04-03T13:59:40;9.80;;;3.90;;
69569;SDS011;56781;42.292;23.146;2023-04-03T14:07:11;6.67;;;2.30;;
69569;SDS011;56781;42.292;23.146;2023-04-03T14:09:40;8.32;;;2.70;;
69569;SDS011;56781;42.292;23.146;2023-04-03T14:12:30;6.30;;;2.65;;
69569;SDS011;56781;42.292;23.146;2023-04-03T14:15:04;8.15;;;3.05;;
69569;SDS011;56781;42.292;23.146;2023-04-03T14:17:42;6.30;;;2.10;;
69569;SDS011;56781;42.292;23.146;2023-04-03T14:20:13;8.60;;;3.10;;
69569;SDS011;56781;42.292;23.146;2023-04-03T14:22:42;4.95;;;1.95;;
69569;SDS011;56781;42.292;23.146;2023-04-03T14:25:10;8.13;;;3.55;;
69569;SDS011;56781;42.292;23.146;2023-04-03T14:27:43;7.15;;;3.15;;
69569;SDS011;56781;42.292;23.146;2023-04-03T14:30:27;7.55;;;2.95;;
69569;SDS011;56781;42.292;23.146;2023-04-03T14:32:56;4.53;;;2.13;;
69569;SDS011;56781;42.292;23.146;2023-04-03T14:35:24;4.22;;;2.03;;
69569;SDS011;56781;42.292;23.146;2023-04-03T14:37:52;3.40;;;1.60;;
69569;SDS011;56781;42.292;23.146;2023-04-03T14:40:23;3.42;;;1.30;;
69569;SDS011;56781;42.292;23.146;2023-04-03T14:42:53;6.30;;;1.25;;
69569;SDS011;56781;42.292;23.146;2023-04-03T14:45:22;2.83;;;1.37;;
69569;SDS011;56781;42.292;23.146;2023-04-03T14:47:51;3.58;;;1.27;;
69569;SDS011;56781;42.292;23.146;2023-04-03T14:50:21;3.47;;;1.58;;
69569;SDS011;56781;42.292;23.146;2023-04-03T14:52:52;3.35;;;1.33;;
69569;SDS011;56781;42.292;23.146;2023-04-03T14:55:22;4.75;;;2.38;;
69569;SDS011;56781;42.292;23.146;2023-04-03T14:57:51;4.67;;;2.47;;
69569;SDS011;56781;42.292;23.146;2023-04-03T15:00:20;4.05;;;2.13;;
69569;SDS011;56781;42.292;23.146;2023-04-03T15:02:48;4.38;;;2.30;;
69569;SDS011;56781;42.292;23.146;2023-04-03T15:05:18;3.80;;;1.98;;
69569;SDS011;56781;42.292;23.146;2023-04-03T15:07:53;3.10;;;1.50;;
69569;SDS011;56781;42.292;23.146;2023-04-03T15:10:22;4.33;;;1.50;;
69569;SDS011;56781;42.292;23.146;2023-04-03T15:12:54;8.02;;;4.07;;
69569;SDS011;56781;42.292;23.146;2023-04-03T15:15:22;5.47;;;2.13;;
69569;SDS011;56781;42.292;23.146;2023-04-03T15:17:51;4.35;;;1.50;;
69569;SDS011;56781;42.292;23.146;2023-04-03T15:20:22;4.63;;;1.70;;
69569;SDS011;56781;42.292;23.146;2023-04-03T15:22:52;4.33;;;1.50;;
69569;SDS011;56781;42.292;23.146;2023-04-03T15:25:20;5.65;;;1.65;;
69569;SDS011;56781;42.292;23.146;2023-04-03T15:27:47;3.97;;;1.98;;
69569;SDS011;56781;42.292;23.146;2023-04-03T15:30:15;3.10;;;1.35;;
69569;SDS011;56781;42.292;23.146;2023-04-03T15:32:44;3.65;;;1.60;;
69569;SDS011;56781;42.292;23.146;2023-04-03T15:35:11;5.23;;;2.30;;
69569;SDS011;56781;42.292;23.146;2023-04-03T15:37:39;5.57;;;1.85;;
69569;SDS011;56781;42.292;23.146;2023-04-03T15:40:07;4.05;;;1.60;;
69569;SDS011;56781;42.292;23.146;2023-04-03T15:42:34;3.80;;;1.48;;
69569;SDS011;56781;42.292;23.146;2023-04-03T15:45:01;2.92;;;1.20;;
69569;SDS011;56781;42.292;23.146;2023-04-03T15:47:29;6.87;;;1.43;;
69569;SDS011;56781;42.292;23.146;2023-04-03T15:49:56;3.05;;;1.20;;
69569;SDS011;56781;42.292;23.146;2023-04-03T15:52:23;3.88;;;1.45;;
69569;SDS011;56781;42.292;23.146;2023-04-03T15:54:50;2.47;;;1.00;;
69569;SDS011;56781;42.292;23.146;2023-04-03T15:57:17;3.28;;;0.90;;
69569;SDS011;56781;42.292;23.146;2023-04-03T15:59:45;2.70;;;1.00;;
69569;SDS011;56781;42.292;23.146;2023-04-03T16:02:12;4.35;;;1.67;;
69569;SDS011;56781;42.292;23.146;2023-04-03T16:04:40;3.40;;;1.63;;
69569;SDS011;56781;42.292;23.146;2023-04-03T16:07:07;2.75;;;1.10;;
69569;SDS011;56781;42.292;23.146;2023-04-03T16:09:35;2.58;;;1.08;;
69569;SDS011;56781;42.292;23.146;2023-04-03T16:12:02;3.37;;;1.50;;
69569;SDS011;56781;42.292;23.146;2023-04-03T16:14:30;4.07;;;2.08;;
69569;SDS011;56781;42.292;23.146;2023-04-03T16:16:58;3.80;;;1.85;;
69569;SDS011;56781;42.292;23.146;2023-04-03T16:19:26;3.60;;;1.90;;
69569;SDS011;56781;42.292;23.146;2023-04-03T16:21:54;6.18;;;1.58;;